createdAt,value
2019-02-12T11:14:44.183Z,94647.74
2019-02-12T11:17:10.559Z,94652.89
2019-02-12T11:19:36.969Z,94652.89
2019-02-12T11:22:03.283Z,94656.11
2019-02-12T11:24:35.411Z,94657.46
2019-02-12T11:26:56.199Z,94669.98
2019-02-12T11:29:22.488Z,94668.56
2019-02-12T11:31:48.866Z,94665.56
2019-02-12T11:34:15.260Z,94668.21
2019-02-12T11:36:41.668Z,94672.00
2019-02-12T11:39:08.023Z,94669.50
2019-02-12T11:41:36.061Z,94664.71
2019-02-12T11:44:00.783Z,94667.07
2019-02-12T11:46:27.164Z,94660.52
2019-02-12T11:48:53.543Z,94663.73
2019-02-12T11:51:19.934Z,94680.22
2019-02-12T11:53:46.349Z,94675.69
2019-02-12T11:56:12.696Z,94673.69
2019-02-12T11:58:39.055Z,94683.56
2019-02-12T12:01:05.400Z,94683.28
2019-02-12T12:03:31.842Z,94686.69
2019-02-12T12:05:58.328Z,94693.56
2019-02-12T12:08:24.714Z,94685.42
2019-02-12T12:10:51.099Z,94704.66
2019-02-12T12:13:17.428Z,94697.13
2019-02-12T12:15:43.814Z,94704.25
2019-02-12T12:18:10.168Z,94708.28
2019-02-12T12:20:36.637Z,94704.25
2019-02-12T12:23:02.939Z,94706.77
2019-02-12T12:25:29.343Z,94721.88
2019-02-12T12:27:55.675Z,94709.38
2019-02-12T12:30:22.087Z,94712.44
2019-02-12T12:32:48.414Z,94725.48
2019-02-12T12:35:14.812Z,94726.05
2019-02-12T12:37:41.118Z,94725.64
2019-02-12T12:40:07.456Z,94731.41
2019-02-12T12:42:34.828Z,94742.25
2019-02-12T12:45:01.243Z,94730.90
2019-02-12T12:47:27.639Z,94749.39
2019-02-12T12:49:54.063Z,94758.42
2019-02-12T12:52:20.531Z,94766.19
2019-02-12T12:54:46.899Z,94769.86
2019-02-12T12:57:13.317Z,94769.44
2019-02-12T12:59:39.804Z,94770.46
2019-02-12T13:02:06.248Z,94773.55
2019-02-12T13:04:32.773Z,94778.90
2019-02-12T13:06:59.157Z,94778.22
2019-02-12T13:09:25.644Z,94775.59
2019-02-12T13:11:52.005Z,94789.38
2019-02-12T13:14:18.502Z,94784.19
2019-02-12T13:16:44.961Z,94780.87
2019-02-12T13:19:11.370Z,94789.56
2019-02-12T13:21:37.734Z,94800.13
2019-02-12T13:24:04.140Z,94799.86
2019-02-12T13:26:30.498Z,94798.62
2019-02-12T13:28:56.888Z,94811.81
2019-02-12T13:31:23.282Z,94811.06
2019-02-12T13:33:49.800Z,94818.35
2019-02-12T13:36:16.228Z,94819.56
2019-02-12T13:38:42.659Z,94824.81
2019-02-12T13:41:09.048Z,94811.14
2019-02-12T13:43:35.400Z,94827.87
2019-02-12T13:46:01.846Z,94837.00
2019-02-12T13:48:28.269Z,94837.27
2019-02-12T13:50:54.797Z,94841.50
2019-02-12T13:53:21.325Z,94847.53
2019-02-12T13:55:47.777Z,94854.06
2019-02-12T13:58:14.298Z,94857.55
2019-02-12T14:00:41.135Z,94851.09
2019-02-12T14:03:08.006Z,94858.56
2019-02-12T14:05:35.266Z,94858.61
2019-02-12T14:08:01.799Z,94860.45
2019-02-12T14:10:28.322Z,94869.85
2019-02-12T14:12:54.925Z,94871.81
2019-02-12T14:15:21.807Z,94869.92
2019-02-12T14:17:48.770Z,94887.78
2019-02-12T14:20:15.330Z,94883.80
2019-02-12T14:22:42.052Z,94889.91
2019-02-12T14:25:08.418Z,94885.16
2019-02-12T14:27:34.802Z,94895.81
2019-02-12T14:30:01.307Z,94892.02
2019-02-12T14:32:28.956Z,94902.52
2019-02-12T14:34:55.393Z,94904.08
2019-02-12T14:37:21.819Z,94908.17
2019-02-12T14:39:48.261Z,94917.84
2019-02-12T14:42:14.686Z,94919.81
2019-02-12T14:44:41.138Z,94928.80
2019-02-12T14:47:07.505Z,94928.83
2019-02-12T14:49:33.990Z,94942.33
2019-02-12T14:52:00.439Z,94938.80
2019-02-12T14:54:26.973Z,94946.83
2019-02-12T14:56:53.348Z,94951.64
2019-02-12T14:59:19.735Z,94956.75
2019-02-12T15:01:46.101Z,94956.48
2019-02-12T15:04:12.465Z,94962.52
2019-02-12T15:06:39.027Z,94970.06
2019-02-12T15:09:05.403Z,94961.16
2019-02-12T15:11:31.915Z,94967.27
2019-02-12T15:13:58.300Z,94961.13
2019-02-12T15:16:24.699Z,94951.06
2019-02-12T15:18:51.131Z,94954.87
2019-02-12T15:21:17.598Z,94952.33
2019-02-12T15:23:43.923Z,94964.63
2019-02-12T15:26:10.391Z,94964.83
2019-02-12T15:28:36.766Z,94967.88
2019-02-12T15:31:03.151Z,94966.06
2019-02-12T15:33:29.520Z,94972.78
2019-02-12T15:35:55.890Z,94973.25
2019-02-12T15:38:22.261Z,94982.56
2019-02-12T15:40:48.679Z,94988.08
2019-02-12T15:43:15.119Z,95000.99
2019-02-12T15:45:41.477Z,95001.61
2019-02-12T15:48:07.882Z,95001.03
2019-02-12T15:50:34.274Z,94996.69
2019-02-12T15:53:00.656Z,95011.84
2019-02-12T15:55:27.015Z,95012.80
2019-02-12T15:57:53.378Z,95017.14
2019-02-12T16:00:20.601Z,95011.32
2019-02-12T16:02:46.166Z,95028.67
2019-02-12T16:05:12.567Z,95029.49
2019-02-12T16:07:38.928Z,95039.71
2019-02-12T16:10:05.370Z,95036.20
2019-02-12T16:12:31.812Z,95052.56
2019-02-12T16:14:59.672Z,95044.25
2019-02-12T16:17:24.605Z,95048.70
2019-02-12T16:19:51.003Z,95055.58
2019-02-12T16:22:17.432Z,95066.77
2019-02-12T16:24:43.830Z,95061.97
2019-02-12T16:27:10.198Z,95068.22
2019-02-12T16:29:40.550Z,95076.00
2019-02-12T16:32:05.675Z,95077.97
2019-02-12T16:34:32.053Z,95080.48
2019-02-12T16:37:02.200Z,95085.97
2019-02-12T16:39:28.568Z,95087.41
2019-02-12T16:41:54.975Z,95097.63
2019-02-12T16:44:21.347Z,95098.95
2019-02-12T16:46:47.814Z,95106.01
2019-02-12T16:49:14.829Z,95109.73
2019-02-12T16:51:40.640Z,95117.27
2019-02-12T16:54:07.200Z,95122.06
2019-02-12T16:56:33.639Z,95121.88
2019-02-12T16:59:03.601Z,95132.89
2019-02-12T17:01:26.466Z,95140.41
2019-02-12T17:03:52.843Z,95138.08
2019-02-12T17:06:19.232Z,95142.19
2019-02-12T17:08:48.046Z,95152.98
2019-02-12T17:11:14.494Z,95155.80
2019-02-12T17:13:40.881Z,95157.63
2019-02-12T17:16:07.263Z,95164.00
2019-02-12T17:18:33.673Z,95165.87
2019-02-12T17:21:00.108Z,95169.73
2019-02-12T17:23:26.567Z,95172.66
2019-02-12T17:25:52.983Z,95183.33
2019-02-12T17:28:19.554Z,95178.67
2019-02-12T17:30:45.909Z,95184.86
2019-02-12T17:33:12.286Z,95186.52
2019-02-12T17:35:38.806Z,95200.02
2019-02-12T17:38:05.177Z,95194.59
2019-02-12T17:40:31.585Z,95195.44
2019-02-12T17:42:57.960Z,95188.97
2019-02-12T17:45:24.362Z,95188.62
2019-02-12T17:47:50.721Z,95189.68
2019-02-12T17:50:17.172Z,95192.50
2019-02-12T17:52:43.520Z,95197.89
2019-02-12T17:55:09.932Z,95198.03
2019-02-12T17:57:36.315Z,95189.11
2019-02-12T18:00:02.846Z,95198.84
2019-02-12T18:02:29.200Z,95200.59
2019-02-12T18:04:55.616Z,95205.64
2019-02-12T18:07:21.994Z,95203.41
2019-02-12T18:09:48.413Z,95208.80
2019-02-12T18:12:14.766Z,95216.20
2019-02-12T18:14:41.142Z,95218.88
2019-02-12T18:17:07.519Z,95216.64
2019-02-12T18:19:33.952Z,95226.16
2019-02-12T18:22:00.414Z,95224.15
2019-02-12T18:24:26.786Z,95231.19
2019-02-12T18:26:53.156Z,95241.14
2019-02-12T18:29:19.510Z,95244.09
2019-02-12T18:31:45.929Z,95240.55
2019-02-12T18:34:12.383Z,95255.32
2019-02-12T18:36:38.743Z,95254.50
2019-02-12T18:39:05.105Z,95259.78
2019-02-12T18:41:31.470Z,95263.05
2019-02-12T18:43:57.868Z,95263.39
2019-02-12T18:46:24.347Z,95268.67
2019-02-12T18:48:53.295Z,95273.92
2019-02-12T18:51:17.100Z,95269.37
2019-02-12T18:53:43.631Z,95273.23
2019-02-12T18:56:10.042Z,95280.73
2019-02-12T18:58:36.404Z,95279.14
2019-02-12T19:01:02.939Z,95284.30
2019-02-12T19:03:29.300Z,95285.16
2019-02-12T19:05:55.668Z,95294.73
2019-02-12T19:08:22.070Z,95299.99
2019-02-12T19:10:48.439Z,95305.28
2019-02-12T19:13:14.898Z,95305.04
2019-02-12T19:15:41.259Z,95311.95
2019-02-12T19:18:07.636Z,95314.52
2019-02-12T19:20:34.094Z,95314.02
2019-02-12T19:23:00.460Z,95309.23
2019-02-12T19:25:26.870Z,95307.12
2019-02-12T19:27:53.274Z,95313.56
2019-02-12T19:30:19.716Z,95316.59
2019-02-12T19:32:46.122Z,95316.83
2019-02-12T19:35:12.488Z,95313.55
2019-02-12T19:37:38.862Z,95318.00
2019-02-12T19:40:05.252Z,95317.64
2019-02-12T19:42:31.620Z,95322.79
2019-02-12T19:44:57.991Z,95323.72
2019-02-12T19:47:24.461Z,95329.45
2019-02-12T19:49:50.844Z,95326.64
2019-02-12T19:52:17.224Z,95333.08
2019-02-12T19:54:43.640Z,95324.98
2019-02-12T19:57:10.615Z,95328.95
2019-02-12T19:59:36.333Z,95330.73
2019-02-12T20:02:02.700Z,95333.64
2019-02-12T20:07:13.047Z,95338.19
2019-02-12T20:09:39.536Z,95349.54
2019-02-12T20:12:05.989Z,95347.88
2019-02-12T20:14:32.352Z,95356.44
2019-02-12T20:16:58.725Z,95363.34
2019-02-12T20:19:25.091Z,95358.68
2019-02-12T20:21:51.467Z,95357.03
2019-02-12T20:24:17.815Z,95357.58
2019-02-12T20:26:44.214Z,95360.75
2019-02-12T20:29:10.587Z,95370.69
2019-02-12T20:31:36.973Z,95369.39
2019-02-12T20:34:03.332Z,95365.75
2019-02-12T20:36:29.732Z,95368.45
2019-02-12T20:38:56.096Z,95360.59
2019-02-12T20:41:22.498Z,95374.89
2019-02-12T20:43:48.994Z,95376.73
2019-02-12T20:46:15.388Z,95373.70
2019-02-12T20:48:41.766Z,95376.03
2019-02-12T20:51:08.160Z,95375.45
2019-02-12T20:56:09.791Z,95368.77
2019-02-12T20:58:36.185Z,95378.61
2019-02-12T21:01:02.623Z,95377.44
2019-02-12T21:03:29.074Z,95372.84
2019-02-12T21:05:55.456Z,95370.63
2019-02-12T21:08:21.926Z,95377.62
2019-02-12T21:10:48.386Z,95376.09
2019-02-12T21:13:14.718Z,95384.28
2019-02-12T21:15:41.222Z,95385.94
2019-02-12T21:18:07.585Z,95388.97
2019-02-12T21:20:33.958Z,95395.87
2019-02-12T21:23:00.385Z,95395.99
2019-02-12T21:25:26.848Z,95399.95
2019-02-12T21:27:53.220Z,95405.09
2019-02-12T21:30:19.573Z,95404.77
2019-02-12T21:32:46.043Z,95411.29
2019-02-12T21:35:12.430Z,95410.73
2019-02-12T21:37:38.784Z,95412.12
2019-02-12T21:40:05.140Z,95425.08
2019-02-12T21:42:31.496Z,95420.06
2019-02-12T21:44:57.888Z,95425.88
2019-02-12T21:47:24.234Z,95423.22
2019-02-12T21:49:50.581Z,95420.15
2019-02-12T21:52:16.927Z,95424.38
2019-02-12T21:54:43.281Z,95423.22
2019-02-12T21:57:09.652Z,95427.37
2019-02-12T21:59:36.024Z,95424.86
2019-02-12T22:02:02.449Z,95429.50
2019-02-12T22:04:28.855Z,95435.66
2019-02-12T22:06:55.238Z,95438.51
2019-02-12T22:09:21.591Z,95443.28
2019-02-12T22:11:47.984Z,95445.13
2019-02-12T22:14:14.336Z,95446.75
2019-02-12T22:16:40.685Z,95444.88
2019-02-12T22:19:07.024Z,95451.19
2019-02-12T22:21:33.418Z,95446.04
2019-02-12T22:23:59.760Z,95447.08
2019-02-12T22:26:26.106Z,95441.47
2019-02-12T22:28:52.489Z,95443.77
2019-02-12T22:31:18.999Z,95448.45
2019-02-12T22:33:45.345Z,95442.02
2019-02-12T22:36:11.768Z,95444.34
2019-02-12T22:38:38.112Z,95446.46
2019-02-12T22:41:04.460Z,95453.27
2019-02-12T22:43:30.851Z,95448.58
2019-02-12T22:45:57.205Z,95453.48
2019-02-12T22:48:23.614Z,95459.08
2019-02-12T22:50:49.941Z,95462.12
2019-02-12T22:53:16.332Z,95458.47
2019-02-12T22:55:42.701Z,95463.03
2019-02-12T22:58:09.151Z,95473.70
2019-02-12T23:00:35.523Z,95470.05
2019-02-12T23:03:01.907Z,95465.45
2019-02-12T23:05:28.280Z,95473.75
2019-02-12T23:07:54.651Z,95471.09
2019-02-12T23:10:21.138Z,95472.92
2019-02-12T23:12:47.537Z,95469.89
2019-02-12T23:15:13.903Z,95472.83
2019-02-12T23:17:40.297Z,95473.04
2019-02-12T23:20:06.663Z,95473.59
2019-02-12T23:22:33.035Z,95473.13
2019-02-12T23:24:59.395Z,95476.98
2019-02-12T23:27:25.760Z,95486.45
2019-02-12T23:29:52.166Z,95481.22
2019-02-12T23:32:18.592Z,95486.45
2019-02-12T23:34:44.956Z,95492.43
2019-02-12T23:37:11.356Z,95495.13
2019-02-12T23:39:37.720Z,95500.94
2019-02-12T23:42:04.085Z,95506.79
2019-02-12T23:44:30.514Z,95502.56
2019-02-12T23:46:56.900Z,95511.69
2019-02-12T23:49:23.339Z,95513.34
2019-02-12T23:51:49.863Z,95518.11
2019-02-12T23:54:16.234Z,95523.27
2019-02-12T23:56:42.622Z,95514.92
2019-02-12T23:59:12.089Z,95513.63
